Date,TemperatureHighF,TemperatureAvgF,TemperatureLowF,DewpointHighF,DewpointAvgF,DewpointLowF,HumidityHigh,HumidityAvg,HumidityLow,PressureMaxIn,PressureMinIn,WindSpeedMaxMPH,WindSpeedAvgMPH,GustSpeedMaxMPH,PrecipitationSumIn
2013-1-17,11.7,7.3,4.1,1.0,-1.7,-3.0,75,66,56,30.33,30.24,6,2,14,0.00
2013-1-18,17.8,9.0,-1.1,15.0,4.4,-6.0,89,81,73,30.36,29.80,5,0,7,0.00
2013-1-19,28.8,20.9,13.8,25.0,17.2,9.0,92,86,71,29.83,29.45,9,2,21,0.00
2013-1-20,13.2,6.4,-0.9,10.0,2.3,-6.0,89,83,71,30.18,29.64,15,3,25,0.00
2013-1-21,2.7,-3.3,-8.6,-7.0,-12.1,-20.0,78,66,46,30.16,30.02,6,2,16,0.00
2013-1-22,2.3,-4.9,-9.9,-10.0,-13.8,-18.0,77,65,51,30.30,30.16,8,1,15,0.00
2013-1-23,12.4,3.8,-5.7,8.0,-4.0,-14.0,87,70,45,30.38,30.07,11,2,26,0.00
2013-1-24,11.4,7.2,3.1,5.0,2.2,0.0,86,80,67,30.66,30.39,11,2,16,0.00
2013-1-25,20.0,12.5,7.2,14.0,8.2,2.0,88,83,75,30.42,29.95,5,1,6,0.00
2013-1-26,23.7,18.7,12.7,17.0,13.9,10.0,93,82,69,30.37,30.07,8,2,14,0.00
2013-1-27,32.2,25.9,18.9,29.0,20.1,13.0,93,78,61,30.35,30.00,9,4,15,0.00
2013-1-28,32.4,29.7,26.9,30.0,27.6,25.0,94,92,88,29.99,29.84,5,1,9,0.00
2013-1-29,36.9,32.8,30.7,36.0,31.2,28.0,96,94,89,29.90,29.48,10,4,18,0.21
2013-1-30,32.7,24.2,15.5,30.0,21.3,13.0,92,89,80,29.56,29.32,18,8,28,0.00
2013-1-31,15.5,12.6,9.8,13.0,10.1,7.0,91,89,87,29.92,29.35,10,3,21,0.00
2013-2-1,11.2,5.9,-1.7,9.0,2.3,-6.0,90,84,76,30.14,29.93,5,1,8,0.00
2013-2-2,13.2,1.6,-9.3,8.0,-2.7,-13.0,87,82,73,30.13,30.04,4,1,9,0.00
2013-2-3,14.7,5.0,-5.3,8.0,-0.6,-9.0,88,78,62,30.03,29.86,8,1,12,0.00
2013-2-4,14.6,3.3,-11.3,2.0,-3.4,-15.0,87,74,55,30.03,29.93,4,0,11,0.00
2013-2-5,20.8,8.4,-12.4,17.0,3.7,-17.0,87,81,69,30.05,29.75,7,2,21,0.00
2013-2-6,24.2,14.0,3.0,15.0,7.3,-1.0,89,75,51,30.25,30.07,3,0,5,0.00
2013-2-7,22.0,18.6,16.8,18.0,15.7,14.0,91,88,79,30.24,30.19,10,1,18,0.00
2013-2-8,21.7,15.3,-5.2,17.0,9.7,-9.0,90,79,61,30.42,30.23,13,4,20,0.00
2013-2-9,29.0,12.2,-8.8,21.0,8.0,-13.0,90,83,69,30.43,30.15,12,4,21,0.00
2013-2-10,32.3,28.1,23.8,31.0,24.9,21.0,95,88,80,30.15,29.43,11,3,15,0.00
2013-2-11,34.4,28.8,20.6,33.0,26.7,17.0,97,92,84,29.80,29.26,9,3,21,0.36
2013-2-12,26.5,21.7,17.5,20.0,16.7,13.0,92,81,67,29.96,29.79,3,0,8,0.00
2013-2-13,37.5,24.4,13.1,25.0,18.8,11.0,95,80,58,29.78,29.64,7,1,10,0.01
2013-2-14,31.3,25.5,17.9,28.0,21.7,12.0,95,85,74,29.94,29.65,17,4,24,0.00
2013-2-15,17.8,14.6,9.1,14.0,9.0,2.0,87,78,66,30.18,29.94,12,3,18,0.00
2013-2-16,17.4,11.3,7.0,14.0,8.3,4.0,90,87,82,30.20,30.10,7,1,11,0.00
2013-2-17,21.4,10.7,-3.2,14.0,3.2,-7.0,88,73,46,30.20,30.03,6,2,10,0.00
2013-2-18,33.8,26.2,12.9,29.0,21.7,4.0,95,83,67,30.03,29.44,13,4,19,0.00
2013-2-19,30.7,19.0,10.6,30.0,17.1,8.0,96,92,89,29.95,29.32,14,6,32,0.00
2013-2-20,16.9,14.2,11.1,15.0,11.8,8.0,91,90,89,30.41,29.96,21,7,26,0.00
2013-2-21,22.1,19.0,14.2,20.0,16.9,12.0,93,91,89,30.50,30.34,14,4,18,0.00
2013-2-22,23.5,19.3,13.4,21.0,17.2,11.0,93,91,88,30.34,29.83,4,0,10,0.00
2013-2-23,33.6,25.0,15.3,27.0,22.0,13.0,95,89,73,29.84,29.75,4,0,5,0.02
2013-2-24,32.4,27.6,24.8,27.0,24.3,22.0,95,87,73,30.13,29.85,5,1,12,0.02
2013-2-25,35.5,28.9,23.5,27.0,23.8,21.0,92,82,61,30.16,30.12,3,0,5,0.00
2013-2-26,34.5,30.1,26.2,27.0,25.3,23.0,95,83,69,30.16,29.93,9,1,11,0.02
2013-2-27,31.3,29.5,26.5,30.0,27.1,23.0,96,90,83,29.92,29.77,18,5,24,0.00
2013-2-28,29.8,25.8,22.3,29.0,22.0,16.0,96,85,74,30.22,29.86,17,9,27,0.00
2013-3-1,22.7,19.7,18.1,17.0,13.8,11.0,87,78,62,30.35,30.21,17,7,24,0.00
2013-3-2,21.7,18.1,13.3,15.0,12.2,8.0,89,77,66,30.29,30.17,12,4,19,0.00
2013-3-3,24.1,16.9,4.4,16.0,11.1,2.0,90,78,65,30.17,30.13,11,2,17,0.00
2013-3-4,27.5,17.3,6.7,18.0,11.5,4.0,94,79,51,30.23,30.15,8,1,13,0.00
2013-3-5,29.8,18.5,2.7,26.0,13.7,-1.0,91,82,61,30.22,30.13,12,2,18,0.00
2013-3-6,29.3,26.4,20.8,26.0,23.0,14.0,94,87,76,30.33,30.17,6,2,12,0.00
2013-3-7,26.7,22.9,20.0,20.0,17.6,14.0,88,80,65,30.47,30.32,6,1,16,0.00
2013-3-8,34.4,24.2,6.8,24.0,18.8,4.0,93,81,63,30.51,30.31,12,3,15,0.00
2013-3-9,35.3,30.8,24.8,32.0,27.5,23.0,94,87,76,30.31,29.85,12,4,20,0.06
2013-3-10,34.7,33.1,31.3,34.0,31.2,28.0,97,93,87,29.96,29.79,13,4,21,0.05
2013-3-11,31.4,29.7,25.6,30.0,28.6,24.0,96,96,94,29.88,29.51,15,5,20,0.00
2013-3-12,25.5,21.1,17.0,24.0,18.3,14.0,95,89,80,29.90,29.57,7,1,15,0.00
2013-3-13,25.0,21.3,18.2,18.0,15.8,13.0,93,80,65,30.24,29.90,18,6,27,0.00
2013-3-14,38.9,24.4,6.9,20.0,14.8,4.0,92,69,41,30.26,29.94,6,1,11,0.15
2013-3-15,32.1,23.2,16.9,29.0,16.7,9.0,93,76,66,30.02,29.89,16,5,22,0.00
2013-3-16,24.7,18.7,14.1,15.0,12.5,8.0,89,77,58,30.11,29.97,6,1,10,0.00
2013-3-17,26.8,17.1,12.0,14.0,6.6,2.0,89,64,44,30.34,30.12,9,2,17,0.00
2013-3-18,36.2,23.5,10.0,27.0,16.8,5.0,94,77,48,30.20,29.47,13,4,19,0.00
2013-3-19,29.2,24.9,20.1,27.0,19.8,13.0,94,81,63,29.82,29.41,8,2,16,0.00
2013-3-20,22.4,18.6,14.2,19.0,13.5,9.0,93,80,71,29.95,29.82,9,3,16,0.00
2013-3-21,24.2,22.3,18.4,22.0,17.9,14.0,93,83,74,30.01,29.91,14,4,20,0.00
2013-3-22,29.2,25.1,18.2,25.0,21.4,14.0,92,86,79,30.11,29.97,10,4,16,0.00
2013-3-23,32.3,27.6,24.2,27.0,22.9,21.0,90,82,69,30.17,30.09,6,2,14,0.03
2013-3-24,31.2,27.1,21.8,24.0,21.7,19.0,94,80,67,30.16,29.95,11,2,20,0.00
2013-3-25,31.6,29.2,26.5,27.0,24.7,22.0,92,83,75,30.09,29.94,17,5,20,0.00
2013-3-26,37.5,32.6,29.6,31.0,28.2,24.0,93,84,69,30.19,30.09,10,3,20,0.05
2013-3-27,38.9,32.3,26.9,29.0,23.9,20.0,85,72,48,30.26,30.17,13,4,20,0.00
2013-3-28,42.2,32.5,20.3,28.0,19.5,15.0,87,60,36,30.30,30.25,9,2,15,0.00
2013-3-29,50.4,31.3,13.9,22.0,16.1,11.0,92,60,26,30.31,30.19,4,1,9,0.00
2013-3-30,39.6,31.4,25.2,33.0,26.0,19.0,96,81,54,30.18,29.76,10,3,20,0.15
2013-3-31,43.8,33.3,22.9,34.0,27.7,18.0,97,82,42,29.81,29.55,22,3,22,0.01
2013-4-1,24.5,21.0,17.0,19.0,12.5,8.0,90,70,51,30.09,29.81,17,4,25,0.00
2013-4-2,29.6,23.1,15.3,15.0,11.1,7.0,79,61,43,30.28,30.07,12,2,24,0.00
2013-4-3,42.7,29.3,18.8,20.0,13.3,8.0,70,52,29,30.44,30.16,11,3,16,0.00
2013-4-4,44.7,34.7,29.2,30.0,23.6,19.0,75,64,49,30.16,29.91,12,4,20,0.00
2013-4-5,34.6,28.5,21.8,22.0,16.9,13.0,78,62,41,30.26,30.07,11,4,19,0.00
2013-4-6,36.7,30.0,20.0,32.0,24.9,15.0,94,82,67,30.21,29.54,14,4,19,0.25
2013-4-7,39.0,33.2,25.6,32.0,29.1,24.0,96,85,66,30.02,29.51,10,3,19,0.08
2013-4-8,37.3,32.0,26.0,34.0,29.7,25.0,96,91,78,30.04,29.87,5,1,8,0.30
2013-4-9,35.0,32.4,29.7,33.0,30.3,25.0,97,92,80,30.20,30.04,17,3,26,0.00
2013-4-10,36.3,31.8,28.6,26.0,22.9,15.0,86,70,45,30.23,30.14,12,5,19,0.00
2013-4-11,34.3,31.2,27.2,26.0,18.5,11.0,90,61,38,30.18,29.89,12,2,17,0.00
2013-4-12,31.2,27.6,25.0,27.0,25.0,23.0,94,90,79,29.86,29.69,5,1,12,0.02
2013-4-13,35.9,29.3,25.3,29.0,25.5,23.0,95,86,76,29.93,29.70,10,2,17,0.26
2013-4-14,44.0,32.6,19.5,30.0,25.5,18.0,93,76,49,30.06,29.90,10,1,13,0.06
2013-4-15,55.1,41.5,32.2,40.0,32.4,24.0,96,73,39,29.89,29.62,12,3,20,0.43
2013-4-16,43.2,36.7,29.4,31.0,28.1,25.0,93,71,55,30.36,29.83,8,2,14,0.00
2013-4-17,45.0,35.8,26.6,32.0,28.7,25.0,96,77,57,30.44,30.09,5,1,9,0.00
2013-4-18,37.1,34.6,33.1,36.0,32.7,27.0,97,93,68,30.09,29.33,6,1,10,0.35
2013-4-19,36.7,30.6,21.3,36.0,28.5,18.0,97,92,81,29.72,29.07,15,4,24,0.16
2013-4-20,30.8,23.5,15.2,19.0,16.8,13.0,93,76,55,30.47,29.73,11,3,20,0.02
2013-4-21,42.5,27.7,10.0,28.0,19.2,8.0,93,73,42,30.56,30.29,12,4,20,0.00
2013-4-22,39.3,35.9,33.4,37.0,33.4,28.0,97,91,75,30.28,30.15,11,3,17,0.52
2013-4-23,34.1,32.7,30.1,33.0,31.1,28.0,97,94,86,30.15,29.87,9,2,20,0.17
2013-4-24,46.4,34.3,20.1,28.0,22.1,16.0,97,66,32,29.99,29.90,7,1,9,0.00
2013-4-25,46.1,36.0,26.5,34.0,27.9,21.0,95,75,39,30.21,29.85,12,2,18,0.15
2013-4-26,51.6,38.3,26.1,37.0,30.7,23.0,92,75,49,30.25,30.10,18,3,22,0.05
2013-4-27,66.2,47.9,29.4,48.0,39.2,28.0,97,74,47,30.17,30.00,11,3,15,0.00
2013-4-28,69.1,54.4,39.4,44.0,38.2,34.0,83,58,30,30.00,29.77,11,4,16,0.00
2013-4-29,66.6,52.8,41.7,54.0,45.6,36.0,95,77,59,29.80,29.74,6,2,13,0.11
2013-4-30,66.1,55.0,44.9,56.0,50.3,43.0,96,85,68,29.82,29.64,25,6,31,0.04
2013-5-1,57.9,48.5,35.8,51.0,41.7,31.0,97,78,54,30.37,29.81,16,4,21,0.22
2013-5-2,40.9,35.4,31.7,35.0,32.3,31.0,96,88,76,30.40,30.32,23,8,24,0.43
2013-5-3,37.9,34.4,31.6,35.0,32.4,31.0,97,92,85,30.33,30.20,17,6,21,0.07
2013-5-4,52.4,39.7,33.9,42.0,35.9,33.0,97,87,63,30.22,30.16,9,3,18,0.02
2013-5-5,56.5,42.6,32.9,41.0,36.2,32.0,95,80,55,30.20,30.11,9,3,12,0.00
2013-5-6,65.6,45.6,30.2,45.0,37.2,29.0,97,76,42,30.16,30.05,7,2,11,0.00
2013-5-7,80.3,56.4,34.3,45.0,36.6,25.0,97,58,14,30.11,30.00,5,1,11,0.00
2013-5-8,81.2,60.5,37.8,42.0,37.7,34.0,88,49,21,30.01,29.93,10,1,13,0.00
2013-5-9,49.0,41.2,35.4,39.0,35.4,31.0,90,80,65,30.16,29.96,14,5,24,0.00
2013-5-10,42.8,36.3,27.4,31.0,26.0,16.0,90,68,34,30.16,29.96,14,5,21,0.01
2013-5-11,42.8,35.4,27.1,36.0,30.6,25.0,95,84,58,29.96,29.79,16,3,22,0.32
2013-5-12,38.0,32.6,29.7,31.0,26.9,24.0,95,80,61,30.10,29.84,15,6,26,0.00
2013-5-13,54.9,40.7,25.1,28.0,23.6,20.0,84,54,31,30.14,29.95,9,2,15,0.00
2013-5-14,63.5,49.9,37.7,42.0,37.2,30.0,86,63,42,29.95,29.50,12,5,18,0.03
2013-5-15,73.8,60.7,43.4,45.0,39.9,32.0,88,51,22,29.72,29.45,13,4,21,0.00
2013-5-16,57.6,46.4,33.2,39.0,36.0,31.0,93,68,45,30.11,29.72,13,3,18,0.00
2013-5-17,70.3,49.7,30.5,43.0,37.4,29.0,96,68,33,30.21,30.11,6,1,12,0.00
2013-5-18,61.4,54.3,46.5,47.0,43.2,39.0,79,66,53,30.16,29.96,10,3,14,0.00
2013-5-19,81.4,65.5,52.7,62.0,54.5,45.0,83,69,47,29.95,29.80,8,3,13,0.00
2013-5-20,66.9,61.9,57.4,62.0,57.6,52.0,94,86,72,29.82,29.67,9,3,17,0.25
2013-5-21,61.8,55.3,43.3,59.0,53.7,42.0,98,94,88,29.72,29.62,9,2,13,0.23
2013-5-22,45.4,42.9,40.9,45.0,42.2,40.0,98,97,94,29.93,29.70,9,3,17,0.13
2013-5-23,43.6,39.6,36.0,39.0,31.7,30.0,95,74,59,30.33,29.93,19,6,27,0.01
2013-5-24,54.6,42.4,28.6,35.0,31.7,28.0,97,69,41,30.46,30.33,9,2,14,0.00
2013-5-25,63.7,47.1,27.6,39.0,32.1,27.0,97,62,29,30.46,30.34,14,1,15,0.00
2013-5-26,66.3,49.7,29.2,40.0,33.6,28.0,96,60,28,30.39,30.22,11,1,15,0.00
2013-5-27,70.5,53.9,33.1,44.0,36.6,28.0,96,58,23,30.25,29.97,7,2,13,0.00
2013-5-28,57.4,54.1,51.0,51.0,44.0,33.0,93,70,43,29.97,29.73,6,2,8,0.00
2013-5-29,77.5,62.1,52.2,60.0,55.2,50.0,95,80,50,29.84,29.74,7,1,11,0.00
2013-5-30,84.1,67.9,55.3,67.0,60.6,53.0,95,79,54,29.84,29.71,12,4,25,0.00
2013-5-31,77.1,65.8,57.3,63.0,60.0,56.0,95,83,60,29.76,29.64,12,4,16,0.02
2013-6-1,78.6,57.1,41.0,64.0,52.7,40.0,98,87,50,29.71,29.57,9,2,14,0.47
2013-6-2,49.7,41.2,32.0,40.0,36.6,31.0,97,85,59,30.03,29.71,14,5,25,0.11
2013-6-3,54.1,43.7,28.1,40.0,33.4,27.0,97,71,37,30.13,30.03,10,2,16,0.00
2013-6-4,57.9,41.3,31.9,39.0,33.2,30.0,95,77,41,30.19,30.14,1,0,2,0.00
2013-6-7,57.3,47.4,40.0,43.0,40.4,38.0,94,78,59,29.95,29.94,4,0,4,0.00
2013-6-8,74.1,55.8,37.6,49.0,42.0,37.0,97,66,30,30.04,29.94,6,1,10,0.00
2013-6-9,75.5,59.9,40.3,54.0,46.7,39.0,97,66,38,30.10,29.95,9,2,12,0.00
2013-6-10,79.8,67.2,57.1,62.0,55.2,50.0,89,66,49,29.95,29.76,11,2,14,0.00
2013-6-11,76.3,63.0,49.1,63.0,57.1,48.0,97,83,63,29.86,29.78,12,1,14,0.00
2013-6-12,77.7,62.2,44.8,59.0,50.1,44.0,98,70,37,29.88,29.78,11,1,13,0.00
2013-6-13,59.3,51.7,46.8,50.0,46.5,44.0,93,83,67,30.09,29.79,11,3,17,0.00
2013-6-14,67.5,53.9,36.9,44.0,38.6,30.0,94,61,26,30.18,30.02,6,1,13,0.00
2013-6-15,76.7,60.4,46.9,61.0,52.5,42.0,93,76,57,30.02,29.76,6,1,10,0.01
2013-6-16,77.6,64.2,51.0,60.0,54.6,50.0,98,75,41,29.84,29.71,12,2,20,0.20
2013-6-17,54.8,48.6,39.7,50.0,44.9,38.0,97,87,72,30.06,29.81,8,2,14,0.00
2013-6-18,66.8,51.6,37.0,47.0,39.7,36.0,97,69,33,30.17,30.07,10,1,14,0.01
2013-6-19,74.9,57.7,36.4,50.0,42.6,35.0,97,63,27,30.15,30.03,11,2,14,0.00
2013-6-20,77.5,63.8,51.2,64.0,55.1,46.0,95,74,55,30.12,30.04,4,1,13,0.17
2013-6-21,63.5,60.4,52.7,62.0,58.8,52.0,97,94,88,30.12,29.88,8,2,12,0.32
2013-6-22,65.8,57.9,49.9,62.0,56.5,49.0,99,95,84,30.08,29.95,5,1,8,0.00
2013-6-23,81.1,66.9,58.6,69.0,62.9,58.0,98,88,61,29.98,29.77,8,2,17,0.20
2013-6-24,87.3,70.8,56.4,70.0,63.9,56.0,98,81,47,29.90,29.75,11,1,11,0.09
2013-6-25,87.7,73.0,62.4,68.0,62.7,58.0,98,74,38,29.79,29.75,6,1,9,0.00
2013-6-26,87.7,71.7,61.5,71.0,64.7,60.0,98,81,48,29.79,29.67,12,2,15,0.56
2013-6-27,80.4,66.7,61.2,70.0,63.3,60.0,98,90,67,29.73,29.63,5,0,11,0.33
2013-6-28,61.7,57.7,52.8,61.0,56.9,52.0,98,97,94,29.70,29.59,8,1,11,0.03
2013-6-29,65.1,56.4,47.8,56.0,51.4,43.0,99,84,64,29.89,29.69,10,2,15,0.03
2013-6-30,74.7,59.7,47.2,52.0,45.5,40.0,86,63,31,30.07,29.89,7,2,12,0.00
2013-7-1,66.7,55.5,41.2,55.0,45.7,39.0,93,71,45,30.21,30.07,9,2,17,0.00
2013-7-2,72.0,56.7,39.8,52.0,44.6,38.0,97,69,33,30.21,30.10,10,1,12,0.00
2013-7-3,79.8,63.7,46.5,54.0,49.5,45.0,95,64,33,30.11,29.99,3,0,5,0.00
2013-7-4,83.2,69.4,57.3,65.0,58.8,50.0,89,70,51,30.00,29.92,7,2,16,0.00
2013-7-5,86.9,72.5,58.0,65.0,60.6,57.0,96,70,39,29.97,29.88,13,2,16,0.00
2013-7-6,89.7,73.8,64.8,68.0,63.1,61.0,89,72,46,29.91,29.85,8,2,14,0.00
2013-7-7,84.3,69.9,58.6,70.0,63.9,57.0,95,82,57,29.93,29.85,8,1,11,0.05
2013-7-8,75.2,61.1,54.4,70.0,58.7,54.0,98,92,76,30.00,29.89,7,1,11,0.49
2013-7-9,79.3,65.6,55.7,70.0,62.5,55.0,98,91,71,30.00,29.65,5,1,10,0.09
2013-7-10,70.7,65.0,52.7,66.0,58.0,51.0,98,80,55,29.91,29.63,13,3,21,0.00
2013-7-11,79.1,63.2,49.9,57.0,52.0,47.0,98,72,33,30.11,29.92,6,1,9,0.00
2013-7-12,82.9,67.0,58.4,62.0,56.2,50.0,88,70,43,30.11,30.02,10,2,12,0.00
2013-7-13,85.9,71.5,59.0,65.0,59.7,50.0,93,68,45,30.10,30.02,8,2,13,0.00
2013-7-14,89.5,73.8,56.3,67.0,61.6,55.0,95,68,38,30.18,30.10,8,1,12,0.00
2013-7-15,92.8,76.6,65.0,70.0,65.8,63.0,93,72,38,30.23,30.17,4,0,7,0.00
2013-7-16,94.6,77.9,66.4,76.0,69.1,63.0,93,76,49,30.20,30.09,9,1,11,0.00
2013-7-18,84.6,82.9,81.3,75.0,74.1,72.0,78,75,70,29.86,29.71,9,3,13,0.25
2013-7-19,72.9,65.3,60.8,61.0,58.6,57.0,89,79,61,29.71,29.69,1,0,6,0.53
2013-7-20,65.7,58.3,44.9,57.0,49.2,43.0,94,73,57,30.03,29.71,12,3,18,0.00
2013-7-21,69.8,55.6,39.0,56.0,49.0,38.0,98,81,56,30.06,29.92,4,0,7,0.00
2013-7-22,81.5,65.1,47.3,69.0,59.8,46.0,98,84,60,29.92,29.55,9,2,18,1.34
2013-7-23,62.0,56.3,52.1,61.0,50.1,45.0,97,81,57,29.98,29.64,13,4,33,0.01
2013-7-24,76.5,59.9,41.6,55.0,48.7,41.0,98,71,39,30.06,29.97,8,0,8,0.00
2013-7-25,78.0,63.0,51.5,60.0,56.2,50.0,97,81,51,29.99,29.88,8,2,16,0.44
2013-7-26,66.7,58.3,48.6,64.0,57.0,48.0,98,96,86,29.90,29.80,9,2,13,0.86
2013-7-27,58.4,51.5,45.6,51.0,48.5,45.0,98,90,73,29.88,29.81,4,1,12,0.04
2013-7-28,53.1,49.9,45.3,52.0,48.8,44.0,98,96,92,29.94,29.73,5,1,11,0.25
2013-7-29,71.2,57.1,46.9,55.0,50.8,46.0,99,82,49,30.14,29.94,7,2,14,0.00
2013-7-30,78.1,61.4,47.1,62.0,55.2,47.0,99,82,50,30.16,30.05,3,1,10,0.00
2013-7-31,81.3,66.3,57.7,66.0,59.7,56.0,96,80,49,30.05,29.84,7,1,18,0.00
2013-8-1,71.8,61.8,51.4,58.0,55.2,51.0,97,80,61,29.86,29.83,11,1,14,0.00
2013-8-2,71.8,61.4,51.5,61.0,54.5,50.0,98,80,57,29.90,29.77,8,2,16,0.02
2013-8-3,65.8,58.8,49.8,56.0,52.8,49.0,97,81,65,30.12,29.90,10,2,16,0.00
2013-8-4,71.6,58.3,45.0,54.0,48.6,44.0,98,73,39,30.21,30.07,8,1,14,0.00
2013-8-5,66.6,56.9,49.9,59.0,53.7,48.0,96,89,71,30.07,29.82,5,1,10,0.06
2013-8-6,75.8,64.8,58.3,67.0,61.3,57.0,98,89,71,29.82,29.72,5,1,10,0.00
2013-8-7,64.5,58.7,45.2,60.0,56.0,44.0,98,91,63,29.97,29.65,10,2,15,0.13
2013-8-8,73.0,57.2,42.2,57.0,50.1,42.0,98,80,48,30.02,29.96,6,1,10,0.03
2013-8-9,71.2,59.7,47.0,58.0,53.4,46.0,98,82,48,30.03,29.88,12,2,17,0.01
2013-8-10,74.3,57.9,42.9,57.0,50.1,42.0,99,79,43,30.12,30.03,9,1,14,0.00
2013-8-11,78.7,62.1,44.2,59.0,53.4,44.0,99,76,42,30.07,29.98,5,1,7,0.00
2013-8-12,73.8,57.7,46.0,63.0,53.7,45.0,99,88,59,30.01,29.87,10,2,22,0.06
2013-8-13,59.5,51.5,42.9,52.0,46.4,42.0,98,84,59,30.15,30.00,14,3,21,0.00
2013-8-14,67.7,54.4,42.7,51.0,46.2,42.0,98,77,42,30.18,30.07,5,1,11,0.00
2013-8-15,75.5,57.2,39.2,55.0,47.1,39.0,99,74,39,30.09,30.03,8,1,13,0.00
2013-8-16,84.1,63.0,44.0,62.0,53.1,43.0,99,74,38,30.14,30.08,3,0,7,0.00
2013-8-17,85.1,67.2,52.3,63.0,56.9,51.0,97,73,41,30.18,30.09,4,1,11,0.00
2013-8-18,84.3,69.2,56.5,63.0,57.8,53.0,88,69,42,30.14,30.00,3,1,11,0.00
2013-8-19,85.0,69.9,55.5,66.0,60.8,54.0,97,75,49,30.01,29.87,6,1,11,0.00
2013-8-20,88.1,74.1,62.7,71.0,66.0,61.0,97,77,50,29.94,29.86,6,2,13,0.00
2013-8-21,91.2,72.3,65.1,75.0,67.7,64.0,99,87,56,29.92,29.78,10,1,12,0.98
2013-8-22,75.3,64.4,51.5,66.0,57.4,51.0,99,80,49,30.13,29.92,9,1,13,0.01
2013-8-23,83.9,63.1,47.5,60.0,53.7,47.0,99,76,36,30.21,30.11,4,1,8,0.01
2013-8-24,82.5,67.2,55.7,64.0,58.3,54.0,96,76,48,30.20,30.07,9,2,11,0.00
2013-8-25,93.9,78.3,65.0,77.0,69.5,58.0,90,75,55,30.08,29.86,6,2,13,0.00
2013-8-26,84.2,74.0,66.1,74.0,69.7,66.0,98,87,66,29.94,29.84,9,1,27,0.56
2013-8-27,83.0,72.2,66.1,74.0,69.9,66.0,99,93,73,29.90,29.79,3,0,7,0.12
2013-8-28,81.5,68.7,61.0,71.0,65.4,60.0,99,90,70,30.02,29.86,8,1,12,0.01
2013-8-29,90.2,71.9,58.6,72.0,66.0,58.0,99,84,49,30.04,29.83,5,1,9,0.01
2013-8-30,71.8,67.1,60.1,69.0,64.8,59.0,98,92,80,29.90,29.70,15,3,18,0.47
2013-8-31,80.9,66.9,59.2,67.0,62.8,59.0,99,88,59,29.89,29.76,5,1,9,0.00
2013-9-1,75.1,63.1,52.9,70.0,61.7,51.0,99,96,80,29.80,29.62,10,2,17,0.84
2013-9-2,58.8,53.6,50.4,51.0,49.7,48.0,96,87,72,29.97,29.81,14,5,20,0.01
2013-9-3,77.4,60.8,48.5,57.0,51.9,48.0,99,76,45,30.00,29.86,5,1,7,0.00
2013-9-4,63.2,56.0,42.4,58.0,49.8,41.0,97,81,57,30.17,29.85,11,3,19,0.01
2013-9-5,75.0,54.1,37.5,52.0,45.4,37.0,99,76,36,30.31,30.17,5,0,9,0.00
2013-9-6,74.9,61.3,50.3,64.0,56.4,48.0,95,84,67,30.18,29.88,6,1,10,0.02
2013-9-7,73.4,64.4,52.7,69.0,62.4,52.0,98,93,84,30.06,29.81,9,2,14,0.00
2013-9-8,70.9,56.9,46.1,56.0,51.6,46.0,99,85,52,30.17,30.01,3,0,6,0.01
2013-9-9,66.9,61.1,50.8,66.0,60.1,50.0,99,96,89,30.01,29.68,5,1,11,0.01
2013-9-10,82.3,69.5,60.1,74.0,67.0,60.0,100,93,69,29.86,29.67,4,0,9,0.10
2013-9-11,83.9,66.6,56.4,65.0,61.5,56.0,99,86,47,29.91,29.83,11,1,11,0.01
2013-9-12,57.6,53.7,48.2,57.0,50.5,42.0,98,89,76,30.14,29.89,12,3,22,0.04
2013-9-13,55.5,47.9,37.9,44.0,40.2,37.0,98,75,61,30.24,30.12,11,3,20,0.00
2013-9-14,72.0,56.0,37.7,53.0,47.1,37.0,98,75,45,30.13,29.92,7,1,8,0.00
2013-9-15,58.2,51.8,44.3,55.0,48.9,40.0,97,90,78,30.25,29.89,12,2,18,0.15
2013-9-16,57.5,46.4,36.2,45.0,40.0,35.0,98,80,56,30.44,30.26,6,1,9,0.00
2013-9-17,66.9,50.0,33.9,53.0,44.3,33.0,99,83,55,30.37,30.12,17,2,17,0.00
2013-9-18,63.1,56.8,45.5,62.0,56.0,45.0,99,97,95,30.11,29.86,5,2,12,0.10
2013-9-19,73.1,66.2,62.5,70.0,65.3,62.0,99,97,88,29.88,29.65,6,3,17,0.14
2013-9-20,68.3,62.8,51.4,67.0,62.1,51.0,100,97,89,29.71,29.58,4,1,12,0.44
2013-9-21,51.7,46.9,41.6,51.0,45.8,39.0,99,96,88,29.94,29.71,7,2,13,0.26
2013-9-22,50.4,45.0,38.4,45.0,41.8,37.0,98,89,71,30.11,29.94,6,1,10,0.03
2013-9-23,62.0,45.0,30.5,49.0,40.9,30.0,99,87,59,30.17,30.10,8,1,14,0.01
2013-9-24,69.3,50.5,35.3,54.0,46.2,35.0,99,87,55,30.13,30.01,6,1,11,0.00
2013-9-25,74.1,52.7,39.1,57.0,47.8,39.0,99,86,51,30.04,29.98,3,0,6,0.01
2013-9-26,75.5,53.7,34.5,57.0,47.6,34.0,99,83,49,30.11,30.01,5,1,11,0.00
2013-9-27,76.8,60.3,49.7,60.0,53.4,49.0,99,81,47,30.14,30.05,6,2,21,0.01
2013-9-28,72.5,62.3,52.6,61.0,56.2,50.0,97,82,63,30.06,29.72,17,4,26,0.21
2013-9-29,71.9,55.3,41.4,55.0,48.9,41.0,99,82,40,29.98,29.80,6,1,10,0.01
2013-9-30,68.5,55.8,47.2,53.0,49.2,46.0,98,81,52,29.96,29.73,12,3,20,0.01
2013-10-1,80.0,62.5,51.1,61.0,54.7,41.0,98,78,49,29.81,29.62,8,2,15,0.00
2013-10-2,72.2,56.5,43.0,46.0,40.4,37.0,92,58,29,30.03,29.82,7,1,10,0.00
2013-10-3,62.8,53.3,45.5,54.0,49.9,43.0,97,88,69,30.03,29.93,5,1,10,0.15
2013-10-4,60.2,55.1,51.8,54.0,51.5,49.0,95,88,77,30.12,29.97,5,1,13,0.00
2013-10-5,54.0,49.9,48.0,51.0,48.7,47.0,98,96,86,30.12,29.83,4,1,13,0.68
2013-10-6,67.0,55.7,49.8,62.0,54.5,49.0,99,96,77,29.83,29.55,10,3,14,0.16
2013-10-7,53.7,47.2,35.5,49.0,43.3,35.0,98,87,65,30.01,29.59,9,2,19,0.06
2013-10-8,68.1,50.9,33.1,56.0,45.2,33.0,98,83,46,30.13,30.02,11,3,20,0.00
2013-10-9,75.0,60.7,52.6,56.0,52.3,48.0,92,75,46,30.11,30.03,10,3,16,0.00
2013-10-10,73.1,55.7,43.9,53.0,48.1,43.0,98,79,39,30.15,30.07,6,1,11,0.00
2013-10-11,69.4,55.5,47.1,58.0,50.7,47.0,99,86,55,30.11,29.96,9,2,14,0.01
2013-10-12,65.7,57.3,46.8,60.0,54.4,45.0,97,91,75,29.96,29.82,9,3,17,0.13
2013-10-13,55.5,45.4,33.0,46.0,40.9,32.0,98,85,57,30.40,29.96,7,1,13,0.00
2013-10-14,60.3,43.0,27.7,45.0,35.9,27.0,99,80,41,30.46,30.30,3,0,5,0.01
2013-10-15,51.8,47.3,41.0,51.0,45.2,38.0,98,92,82,30.29,29.67,8,1,10,0.11
2013-10-16,51.3,47.1,42.2,51.0,45.0,36.0,99,92,79,29.86,29.61,15,3,18,0.04
2013-10-17,54.1,40.1,26.5,39.0,34.5,26.0,98,82,51,29.87,29.74,4,0,8,0.00
2013-10-18,47.1,43.5,40.1,46.0,41.8,38.0,97,94,87,29.83,29.73,8,1,11,0.22
2013-10-19,53.4,39.8,31.5,40.0,35.7,30.0,99,87,50,29.83,29.65,14,0,14,0.03
2013-10-20,47.8,37.9,28.6,40.0,34.9,28.0,98,89,68,29.79,29.65,3,1,9,0.13
2013-10-21,42.5,36.3,29.5,37.0,31.5,24.0,98,84,59,29.74,29.62,6,1,11,0.08
2013-10-22,40.3,34.6,29.8,37.0,32.1,25.0,97,91,78,29.92,29.63,7,2,16,0.23
2013-10-23,41.0,33.5,28.4,32.0,29.0,26.0,97,84,65,29.90,29.84,6,1,9,0.13
2013-10-24,39.0,34.2,31.1,36.0,32.4,29.0,97,93,86,30.16,29.89,7,1,12,0.37
2013-10-25,44.0,36.0,28.9,34.0,29.2,26.0,96,78,54,30.22,29.61,9,2,15,0.02
2013-10-26,42.7,38.0,32.7,38.0,34.1,31.0,94,86,67,29.97,29.56,11,2,22,0.09
2013-10-27,44.1,36.8,30.2,37.0,32.6,29.0,96,85,65,30.09,29.81,8,1,18,0.08
2013-10-28,37.2,32.9,26.0,33.0,24.7,22.0,88,72,58,30.50,30.10,11,3,25,0.00
2013-10-29,37.3,29.5,22.7,31.0,24.7,20.0,97,84,57,30.50,30.23,5,0,7,0.00
2013-10-30,48.9,40.0,32.0,48.0,39.1,31.0,99,97,93,30.22,29.78,7,1,10,0.05
2013-10-31,52.5,49.5,46.7,52.0,49.2,46.0,99,99,98,29.77,29.10,4,1,12,0.66
2013-11-1,46.6,41.6,37.7,46.0,40.8,35.0,99,97,90,29.70,29.06,11,2,20,0.59
2013-11-2,39.3,36.3,33.4,36.0,32.8,30.0,95,87,77,30.17,29.70,9,1,14,0.02
2013-11-3,44.8,34.7,26.1,37.0,31.2,25.0,98,88,65,30.33,30.16,7,2,14,0.01
2013-11-4,47.4,44.5,40.9,44.0,40.0,37.0,94,84,72,30.27,30.01,18,7,26,0.03
2013-11-5,53.9,43.8,31.9,44.0,37.3,31.0,98,80,47,30.22,29.99,45,1,45,0.27
2013-11-6,40.0,36.2,32.7,39.0,34.1,27.0,98,92,78,29.99,29.76,13,4,19,0.60
2013-11-7,36.9,33.1,31.5,30.0,28.2,27.0,89,82,72,30.09,29.99,7,1,13,0.00
2013-11-8,43.9,34.9,31.5,33.0,26.8,21.0,94,73,43,30.19,29.95,5,1,9,0.01
2013-11-9,40.1,38.2,34.8,39.0,36.4,33.0,98,93,87,29.94,29.58,10,3,22,0.43
2013-11-10,37.6,35.2,31.3,35.0,30.8,27.0,96,84,71,30.17,29.79,11,2,22,0.12
2013-11-11,35.5,26.2,22.8,32.0,21.2,14.0,95,81,59,30.47,29.97,11,4,24,0.00
2013-11-12,28.8,21.8,13.4,19.0,14.0,9.0,89,72,53,30.60,30.42,12,1,21,0.00
2013-11-13,40.8,28.2,11.9,29.0,19.0,8.0,86,69,52,30.42,29.78,14,3,21,0.02
2013-11-14,37.5,33.5,30.3,32.0,28.8,25.0,94,83,76,29.82,29.77,5,2,7,0.01
2013-11-15,36.0,35.6,35.0,35.0,34.7,34.0,98,96,94,29.86,29.84,3,2,5,0.01
2013-11-16,50.4,42.8,34.8,50.0,41.8,34.0,98,96,91,29.86,29.37,17,5,21,0.76
2013-11-17,52.1,48.3,38.4,52.0,47.6,35.0,99,97,87,29.39,29.10,7,3,19,0.00
2013-11-18,38.0,30.1,27.0,34.0,25.4,19.0,96,83,71,30.16,29.23,8,4,19,0.00
2013-11-19,33.4,28.1,25.4,28.0,20.7,18.0,89,74,59,30.37,30.16,8,2,18,0.00
2013-11-20,40.6,37.4,30.9,35.0,33.1,28.0,89,84,76,30.24,30.14,19,5,23,0.01
2013-11-21,39.6,36.0,29.5,36.0,34.3,29.0,97,93,84,30.27,30.11,7,1,17,0.06
2013-11-22,29.8,26.7,21.7,29.0,22.4,16.0,97,84,69,30.42,30.27,9,3,16,0.00
2013-11-23,21.7,13.8,10.0,16.0,10.6,7.0,92,87,67,30.60,30.32,10,3,23,0.00
2013-11-24,21.0,14.2,8.3,10.0,8.0,5.0,90,77,59,30.59,30.04,14,2,19,0.00
2013-11-25,33.5,28.4,21.1,27.0,20.5,9.0,80,72,59,30.03,29.78,10,2,120,0.00
2013-11-26,32.2,21.8,12.9,27.0,16.5,6.0,92,80,64,30.12,29.85,10,1,14,0.00
2013-11-27,23.2,19.8,15.4,18.0,15.6,12.0,92,84,64,30.22,30.10,19,4,128,0.00
2013-11-28,25.3,17.3,10.0,20.0,14.8,8.0,93,90,80,30.48,30.19,1,0,2,0.00
2013-11-29,27.7,14.7,-1.7,22.0,11.2,-4.0,93,86,72,30.62,30.38,5,1,8,0.00
2013-11-30,33.6,29.5,25.9,28.0,24.7,23.0,91,82,72,30.37,30.03,9,2,14,0.00
2013-12-1,32.2,30.8,29.0,31.0,29.2,28.0,97,94,84,30.14,30.02,5,1,8,0.00
2013-12-2,34.7,28.7,25.5,29.0,25.9,22.0,97,90,74,30.01,29.90,3,1,6,0.00
2013-12-3,26.8,23.4,21.2,23.0,20.1,18.0,94,87,83,30.01,29.93,4,0,6,0.00
2013-12-4,35.8,27.6,22.9,35.0,26.2,21.0,98,94,91,29.98,29.33,6,2,15,0.25
2013-12-5,38.0,23.2,7.6,38.0,17.0,1.0,99,77,62,30.08,29.31,10,2,15,0.19
2013-12-6,18.4,9.4,2.2,7.0,1.1,-99.9,85,72,58,30.40,30.08,6,-11,10,0.00
2013-12-7,13.7,4.4,-1.0,2.0,-2.6,-7.0,82,73,57,30.58,30.40,5,0,9,0.00
2013-12-8,11.3,2.2,-8.6,9.0,-2.1,-12.0,91,82,65,30.57,30.11,2,0,6,0.00
2013-12-9,17.7,14.6,11.7,14.0,11.8,10.0,93,89,75,30.10,29.77,3,0,8,0.00
2013-12-10,10.8,6.1,2.4,2.0,-1.0,-4.0,75,72,67,30.11,29.93,7,1,10,0.00
2013-12-11,4.8,-0.7,-4.2,-4.0,-6.9,-10.0,81,75,64,30.39,30.11,5,0,8,0.00
2013-12-12,13.8,4.1,-6.6,5.0,-3.6,-13.0,80,70,59,30.35,30.09,5,1,9,0.00
2013-12-13,12.0,8.3,-0.1,9.0,5.2,-3.0,90,87,77,30.45,30.11,6,0,11,0.00
2013-12-14,12.5,5.8,-3.7,9.0,2.4,-7.0,89,85,78,30.45,29.95,1,0,5,0.00
2013-12-15,17.7,13.0,8.2,16.0,10.3,5.0,93,89,81,30.05,29.75,11,2,18,0.00
2013-12-16,15.9,11.5,1.3,13.0,8.5,-2.0,91,87,78,30.14,29.89,10,1,11,0.00
2013-12-17,25.4,15.1,4.4,21.0,12.1,2.0,93,88,81,29.97,29.79,4,0,10,0.00
2013-12-18,14.6,14.2,14.0,10.0,9.4,9.0,82,81,80,29.98,29.97,2,0,7,0.00
2013-12-20,19.7,19.0,18.0,17.0,16.8,16.0,92,91,90,29.95,29.90,0,0,3,0.00
2013-12-21,25.3,18.3,11.4,21.0,15.8,10.0,94,90,80,30.06,29.88,1,0,5,0.00
2013-12-22,22.0,20.1,18.0,19.0,16.5,13.0,91,86,78,30.11,29.94,10,2,14,0.00
2013-12-23,18.0,15.5,12.6,15.0,11.4,7.0,91,83,73,30.38,30.11,11,3,15,0.00
2013-12-24,17.2,11.2,7.9,12.0,7.3,3.0,91,84,75,30.49,30.33,5,1,8,0.00
2013-12-25,17.1,12.0,9.8,12.0,7.7,5.0,90,83,73,30.32,30.03,4,1,9,0.00
2013-12-26,18.5,9.2,-4.8,9.0,4.5,-8.0,93,82,63,30.24,30.01,3,0,8,0.00
2013-12-27,25.7,11.0,-7.7,23.0,8.4,-11.0,94,89,84,30.24,29.86,10,2,16,0.00
2013-12-28,34.7,31.7,29.0,30.0,29.1,27.0,97,90,84,29.98,29.77,9,1,11,0.01
2013-12-29,28.9,12.6,2.5,28.0,9.9,0.0,97,89,78,30.12,29.78,16,4,25,0.00
2013-12-30,7.6,1.5,-6.5,2.0,-2.8,-10.0,88,82,75,30.26,30.12,2,0,5,0.00
2013-12-31,3.5,-2.0,-5.4,-4.0,-7.2,-10.0,83,78,67,30.38,30.08,4,0,8,0.00
2014-1-1,9.4,2.2,-3.8,5.0,-1.3,-8.0,87,85,80,30.50,30.38,1,0,4,0.00
2014-1-2,10.2,4.6,1.9,6.0,1.4,-2.0,89,86,76,30.45,30.37,3,0,7,0.00